Jackson, Montana
Current Conditions -  °F | °C
As of 12:55 AM on Friday 19 Dec 2014 (Local Time) from KSMN Reporting Station
Overcast Overcast  
Wind Chill: 27°   Ceiling: 6000
Heat Index: 27°   Visibility: 10mi
Dew Point: 23°   Wind: 0mph
Humidity: 86%   Direction: NA
Pressure: 30.07"   Gusts: NA
Location:  45.37°N, 113.41°W
Report Text: KSMN 190755Z AUTO 00000KT 10SM OVC060 M03/M05 A3007 RMK AO1
Loading
Personal Weather Stations






























Interactive Weather Map New forecast layout! Learn more

10-Day Weather Forecast

Advertisements
Track Severe Weather on mobile